Time;durP1;ratioP1;P1;durP2;ratioP2;P2;SDS_P1;SDS_P2;PMS_P1;PMS_P2;Temp;Humidity;BMP_temperature;BMP_pressure;BME280_temperature;BME280_humidity;BME280_pressure;Samples;Min_cycle;Max_cycle;Signal;HPM_P1;HPM_P2
2021/06/09 00:00:41;;;;;;;0.17;0.17;;;17.70;99.90;;;;;;5034426;28;20509;-91
2021/06/09 00:03:07;;;;;;;0.10;0.10;;;17.80;99.90;;;;;;5034378;28;20025;-92
2021/06/09 00:05:32;;;;;;;0.10;0.10;;;17.80;99.90;;;;;;5034286;28;20108;-92
2021/06/09 00:07:58;;;;;;;0.00;0.00;;;17.90;99.90;;;;;;5034287;28;20491;-92
2021/06/09 00:10:24;;;;;;;0.10;0.10;;;17.80;99.90;;;;;;5034431;28;20638;-92
2021/06/09 00:12:50;;;;;;;0.00;0.00;;;17.80;99.90;;;;;;5033886;28;20029;-92
2021/06/09 00:15:17;;;;;;;0.15;0.15;;;17.80;99.90;;;;;;5034012;28;20018;-92
2021/06/09 00:17:43;;;;;;;0.05;0.05;;;17.80;99.90;;;;;;5033692;28;20030;-92
2021/06/09 00:20:13;;;;;;;0.10;0.10;;;17.80;99.90;;;;;;5033782;28;20079;-91
2021/06/09 00:22:39;;;;;;;0.03;0.03;;;17.60;99.90;;;;;;5033953;28;20064;-91
2021/06/09 00:25:13;;;;;;;0.45;0.43;;;17.30;99.90;;;;;;5033429;28;20629;-91
2021/06/09 00:27:39;;;;;;;0.10;0.10;;;17.10;99.90;;;;;;5033729;28;20048;-91
2021/06/09 00:30:06;;;;;;;0.63;0.57;;;16.90;99.90;;;;;;5033257;28;20483;-91
2021/06/09 00:32:31;;;;;;;0.05;0.05;;;16.90;99.90;;;;;;5033525;28;20033;-92
2021/06/09 00:35:03;;;;;;;0.10;0.10;;;16.90;99.90;;;;;;5032733;28;20025;-91
2021/06/09 00:37:29;;;;;;;0.80;0.80;;;17.00;99.90;;;;;;5033047;28;20379;-91
2021/06/09 00:39:55;;;;;;;0.10;0.10;;;17.10;99.90;;;;;;5033388;28;20021;-92
2021/06/09 00:42:21;;;;;;;0.08;0.08;;;17.10;99.90;;;;;;5033223;28;20022;-91
2021/06/09 00:44:48;;;;;;;0.10;0.10;;;17.10;99.90;;;;;;5032922;28;20112;-92
2021/06/09 00:47:21;;;;;;;0.10;0.10;;;17.20;99.90;;;;;;5032799;28;20021;-92
2021/06/09 00:49:47;;;;;;;0.10;0.10;;;17.10;99.90;;;;;;5032958;28;20092;-92
2021/06/09 00:52:13;;;;;;;0.10;0.10;;;17.20;99.90;;;;;;5032754;28;20510;-91
2021/06/09 00:54:39;;;;;;;0.10;0.10;;;17.30;99.90;;;;;;5032846;28;20112;-92
2021/06/09 00:57:08;;;;;;;0.10;0.10;;;17.30;99.90;;;;;;5032742;28;20479;-92
2021/06/09 00:59:35;;;;;;;0.10;0.10;;;17.30;99.90;;;;;;5033213;28;20057;-91
2021/06/09 01:02:01;;;;;;;0.08;0.08;;;17.30;99.90;;;;;;5033139;28;20029;-91
2021/06/09 01:04:27;;;;;;;0.10;0.10;;;17.40;99.90;;;;;;5032634;28;20120;-92
2021/06/09 01:06:53;;;;;;;0.20;0.20;;;17.30;99.90;;;;;;5032585;28;20517;-92
2021/06/09 01:09:19;;;;;;;0.38;0.38;;;17.40;99.90;;;;;;5032981;28;20410;-92
2021/06/09 01:11:45;;;;;;;0.20;0.20;;;17.30;99.90;;;;;;5032442;28;20479;-92
2021/06/09 01:14:11;;;;;;;0.10;0.10;;;17.20;99.90;;;;;;5032481;28;20029;-91
2021/06/09 01:16:37;;;;;;;0.75;0.75;;;17.20;99.90;;;;;;5032773;28;20160;-92
2021/06/09 01:19:03;;;;;;;0.00;0.00;;;17.00;99.90;;;;;;5032500;28;20116;-91
2021/06/09 01:21:30;;;;;;;0.22;0.22;;;17.00;99.90;;;;;;5032314;28;20033;-91
2021/06/09 01:23:56;;;;;;;0.10;0.10;;;17.10;99.90;;;;;;5032293;28;20033;-91
2021/06/09 01:26:25;;;;;;;0.00;0.00;;;17.40;99.90;;;;;;5032259;28;20402;-92
2021/06/09 01:28:53;;;;;;;0.10;0.10;;;17.40;99.90;;;;;;5032123;28;20080;-91
2021/06/09 01:31:19;;;;;;;0.10;0.10;;;17.60;99.90;;;;;;5032281;28;20028;-92
2021/06/09 01:33:45;;;;;;;0.10;0.10;;;17.60;99.90;;;;;;5032041;28;20402;-92
2021/06/09 01:36:11;;;;;;;0.08;0.08;;;17.60;99.90;;;;;;5031478;28;20503;-92
2021/06/09 01:38:37;;;;;;;0.10;0.10;;;17.60;99.90;;;;;;5031844;28;20094;-92
2021/06/09 01:41:02;;;;;;;0.10;0.10;;;17.60;99.90;;;;;;5032227;28;20029;-92
2021/06/09 01:43:28;;;;;;;0.00;0.00;;;17.60;99.90;;;;;;5032179;28;20471;-92
2021/06/09 01:45:55;;;;;;;0.20;0.20;;;17.70;99.90;;;;;;5031341;28;20029;-91
2021/06/09 01:48:21;;;;;;;0.10;0.10;;;17.60;99.90;;;;;;5032051;28;20030;-92
2021/06/09 01:50:47;;;;;;;0.30;0.30;;;17.70;99.90;;;;;;5031786;28;20022;-92
2021/06/09 01:53:13;;;;;;;0.10;0.10;;;17.50;99.90;;;;;;5031371;28;20021;-91
2021/06/09 01:55:39;;;;;;;0.10;0.10;;;17.30;99.90;;;;;;5032220;28;20475;-92
2021/06/09 01:58:07;;;;;;;0.10;0.10;;;17.20;99.90;;;;;;5031851;28;20053;-91
2021/06/09 02:00:40;;;;;;;0.10;0.10;;;16.90;99.90;;;;;;5031835;28;20649;-92
2021/06/09 02:03:06;;;;;;;0.10;0.10;;;16.60;99.90;;;;;;5032095;28;20029;-91
2021/06/09 02:05:34;;;;;;;0.10;0.10;;;16.50;99.90;;;;;;5031720;28;20513;-92
2021/06/09 02:08:06;;;;;;;0.20;0.20;;;16.50;99.90;;;;;;5032168;28;20064;-91
2021/06/09 02:10:33;;;;;;;;;;;16.50;99.90;;;;;;5044657;28;20024;-92
2021/06/09 02:13:03;;;;;;;0.25;0.25;;;16.50;99.90;;;;;;5018300;28;19955;-91
2021/06/09 02:15:29;;;;;;;0.30;0.30;;;16.50;99.90;;;;;;5032093;28;20022;-91
2021/06/09 02:18:08;;;;;;;0.10;0.10;;;16.60;99.90;;;;;;5031489;28;20026;-92
2021/06/09 02:20:40;;;;;;;0.10;0.10;;;16.50;99.90;;;;;;5031313;28;20068;-91
2021/06/09 02:23:09;;;;;;;0.10;0.10;;;16.50;99.90;;;;;;5031435;28;20120;-91
2021/06/09 02:25:37;;;;;;;0.10;0.10;;;16.50;99.90;;;;;;5031293;28;20060;-92
2021/06/09 02:28:05;;;;;;;0.10;0.10;;;16.50;99.90;;;;;;5031345;28;20033;-92
2021/06/09 02:30:32;;;;;;;0.20;0.20;;;16.50;99.90;;;;;;5031085;28;20047;-92
2021/06/09 02:32:57;;;;;;;0.10;0.10;;;16.60;99.90;;;;;;5031340;28;20017;-91
2021/06/09 02:35:23;;;;;;;0.10;0.10;;;16.40;99.90;;;;;;5031629;28;20128;-92
2021/06/09 02:37:54;;;;;;;0.10;0.10;;;16.20;99.90;;;;;;5031429;28;20033;-91
2021/06/09 02:40:21;;;;;;;0.10;0.10;;;16.10;99.90;;;;;;5031303;28;20108;-91
2021/06/09 02:42:49;;;;;;;0.40;0.40;;;16.10;99.90;;;;;;5031623;28;20480;-92
2021/06/09 02:45:18;;;;;;;0.10;0.10;;;16.10;99.90;;;;;;5031660;28;20120;-91
2021/06/09 02:47:59;;;;;;;0.10;0.10;;;16.10;99.90;;;;;;5034533;28;20022;-91
2021/06/09 02:50:25;;;;;;;0.10;0.10;;;16.10;99.90;;;;;;5036428;28;20074;-91
2021/06/09 02:53:32;;;;;;;0.10;0.10;;;16.10;99.90;;;;;;5016949;28;20029;-92
2021/06/09 02:56:24;;;;;;;0.10;0.10;;;16.10;99.90;;;;;;5032287;28;20018;-92
2021/06/09 02:59:05;;;;;;;0.10;0.10;;;16.10;99.90;;;;;;5035989;28;20474;-92
2021/06/09 03:01:42;;;;;;;0.10;0.10;;;16.10;99.90;;;;;;5019360;28;20514;-91
2021/06/09 03:04:20;;;;;;;0.10;0.10;;;16.10;99.90;;;;;;5019067;28;20032;-92
2021/06/09 03:07:01;;;;;;;0.10;0.10;;;16.00;99.90;;;;;;5035015;28;20028;-91
2021/06/09 03:09:43;;;;;;;0.22;0.22;;;15.90;99.90;;;;;;5035213;28;20030;-91
2021/06/09 03:12:39;;;;;;;0.10;0.10;;;15.90;99.90;;;;;;5035191;28;20117;-91
2021/06/09 03:15:12;;;;;;;0.20;0.20;;;15.90;99.90;;;;;;5036737;28;20017;-91
2021/06/09 03:17:53;;;;;;;0.10;0.10;;;15.90;99.90;;;;;;5034836;28;20017;-91
2021/06/09 03:20:34;;;;;;;0.10;0.10;;;16.00;99.90;;;;;;5018356;28;20399;-92
2021/06/09 03:23:11;;;;;;;0.10;0.10;;;16.10;99.90;;;;;;5018787;28;20387;-92
2021/06/09 03:25:47;;;;;;;0.10;0.10;;;16.10;99.90;;;;;;5034916;28;20018;-92
2021/06/09 03:28:21;;;;;;;0.10;0.10;;;15.90;99.90;;;;;;5035025;28;20036;-91
2021/06/09 03:30:55;;;;;;;0.10;0.10;;;16.00;99.90;;;;;;5034880;28;20364;-91
2021/06/09 03:33:24;;;;;;;3.33;0.63;;;15.90;99.90;;;;;;5034730;28;20487;-91
2021/06/09 03:35:55;;;;;;;0.30;0.30;;;15.90;99.90;;;;;;5034358;28;20071;-92
2021/06/09 03:38:38;;;;;;;0.50;0.50;;;15.70;99.90;;;;;;5034680;28;20454;-91
2021/06/09 03:41:09;;;;;;;0.20;0.20;;;15.50;99.90;;;;;;5034194;28;20033;-91
2021/06/09 03:43:39;;;;;;;0.10;0.10;;;15.30;99.90;;;;;;5034515;28;20419;-91
2021/06/09 03:46:07;;;;;;;0.10;0.10;;;15.40;99.90;;;;;;5033991;28;20025;-91
2021/06/09 03:48:37;;;;;;;0.43;0.38;;;15.40;99.90;;;;;;5034324;28;20029;-92
2021/06/09 03:51:04;;;;;;;0.10;0.10;;;15.60;99.90;;;;;;5034012;28;20025;-92
2021/06/09 03:53:33;;;;;;;0.10;0.10;;;15.50;99.90;;;;;;5034063;28;20026;-91
2021/06/09 03:56:04;;;;;;;0.10;0.10;;;15.40;99.90;;;;;;5034337;28;20025;-92
2021/06/09 03:58:31;;;;;;;0.20;0.20;;;15.40;99.90;;;;;;5034309;28;20116;-91
2021/06/09 04:00:58;;;;;;;0.65;0.65;;;15.50;99.90;;;;;;5034191;28;20029;-91
2021/06/09 04:03:26;;;;;;;0.10;0.10;;;15.50;99.90;;;;;;5034019;28;20052;-92
2021/06/09 04:05:54;;;;;;;0.10;0.10;;;15.70;99.90;;;;;;5033996;28;20025;-91
2021/06/09 04:08:20;;;;;;;0.10;0.10;;;15.70;99.90;;;;;;5033183;28;20025;-91
2021/06/09 04:10:47;;;;;;;0.10;0.10;;;15.80;99.90;;;;;;5033866;28;20506;-91
2021/06/09 04:13:14;;;;;;;0.03;0.03;;;15.80;99.90;;;;;;5034197;28;20116;-92
2021/06/09 04:15:41;;;;;;;0.52;0.52;;;15.90;99.90;;;;;;5033835;28;20022;-91
2021/06/09 04:18:08;;;;;;;0.20;0.20;;;15.90;99.90;;;;;;5034020;28;20425;-91
2021/06/09 04:20:36;;;;;;;0.05;0.05;;;15.80;99.90;;;;;;5033875;28;20037;-91
2021/06/09 04:23:03;;;;;;;0.38;0.38;;;15.80;99.90;;;;;;5033938;28;20504;-91
2021/06/09 04:25:29;;;;;;;0.10;0.10;;;16.00;99.90;;;;;;5033639;28;20033;-91
2021/06/09 04:27:56;;;;;;;0.10;0.10;;;16.20;99.90;;;;;;5033989;28;20022;-91
2021/06/09 04:30:23;;;;;;;0.65;0.60;;;16.30;99.90;;;;;;5033458;28;20048;-91
2021/06/09 04:33:04;;;;;;;0.20;0.20;;;16.20;99.90;;;;;;5033704;28;20022;-91
2021/06/09 04:35:45;;;;;;;0.17;0.17;;;16.10;99.90;;;;;;5034654;28;20045;-91
2021/06/09 04:38:17;;;;;;;0.10;0.10;;;15.90;99.90;;;;;;5033479;28;20498;-91
2021/06/09 04:40:43;;;;;;;;;;;15.90;99.90;;;;;;5033664;28;20577;-91
2021/06/09 04:43:14;;;;;;;0.25;0.25;;;15.80;99.90;;;;;;5016982;28;19909;-91
2021/06/09 04:45:40;;;;;;;0.38;0.38;;;15.90;99.90;;;;;;5033893;28;20032;-91
2021/06/09 04:48:14;;;;;;;0.63;0.55;;;15.90;99.90;;;;;;5033518;28;20132;-90
2021/06/09 04:50:46;;;;;;;0.40;0.40;;;15.80;99.90;;;;;;5033556;28;20021;-91
2021/06/09 04:53:19;;;;;;;3.53;1.85;;;15.70;99.90;;;;;;5052218;28;20017;-91
2021/06/09 04:55:48;;;;;;;0.20;0.20;;;15.60;99.90;;;;;;5056952;28;20048;-91
2021/06/09 04:58:18;;;;;;;0.10;0.10;;;15.70;99.90;;;;;;5042379;28;20021;-91
2021/06/09 05:00:46;;;;;;;0.15;0.15;;;15.90;99.90;;;;;;5033470;28;20026;-91
2021/06/09 05:03:12;;;;;;;0.57;0.57;;;15.80;99.90;;;;;;5033433;28;20104;-92
2021/06/09 05:05:38;;;;;;;1.35;0.43;;;15.80;99.90;;;;;;5033289;28;20473;-91
2021/06/09 05:08:05;;;;;;;0.10;0.10;;;16.00;99.90;;;;;;5033297;28;20095;-91
2021/06/09 05:10:33;;;;;;;0.08;0.08;;;16.20;99.90;;;;;;5033327;28;20021;-91
2021/06/09 05:13:23;;;;;;;0.10;0.10;;;16.50;99.90;;;;;;5033475;28;20022;-91
2021/06/09 05:16:07;;;;;;;0.10;0.10;;;16.90;99.90;;;;;;5001552;28;20036;-91
2021/06/09 05:18:39;;;;;;;0.05;0.05;;;17.00;99.90;;;;;;5024078;28;20082;-91
2021/06/09 05:21:18;;;;;;;0.10;0.10;;;17.10;99.90;;;;;;5053031;28;20052;-91
2021/06/09 05:23:48;;;;;;;1.55;1.30;;;17.20;99.90;;;;;;5053043;28;20036;-91
2021/06/09 05:26:15;;;;;;;0.32;0.28;;;17.30;99.90;;;;;;5053458;28;20506;-91
2021/06/09 05:28:50;;;;;;;0.10;0.10;;;17.30;99.90;;;;;;5053148;28;20398;-91
2021/06/09 05:31:18;;;;;;;0.13;0.13;;;17.30;99.90;;;;;;5053438;28;20032;-91
2021/06/09 05:33:46;;;;;;;0.10;0.10;;;17.40;99.90;;;;;;5053051;28;20469;-91
2021/06/09 05:36:23;;;;;;;1.30;0.98;;;17.50;99.90;;;;;;5053407;28;20028;-91
2021/06/09 05:38:56;;;;;;;0.10;0.10;;;17.50;99.90;;;;;;5044128;28;20475;-91
2021/06/09 05:41:25;;;;;;;0.20;0.20;;;17.50;99.90;;;;;;5034203;28;20025;-91
2021/06/09 05:43:51;;;;;;;2.17;1.00;;;17.60;99.90;;;;;;5113091;22;21142;-75
2021/06/09 05:46:19;;;;;;;0.10;0.10;;;17.60;99.90;;;;;;5092248;28;20064;-74
2021/06/09 05:48:46;;;;;;;0.40;0.40;;;17.80;99.90;;;;;;5073219;28;20521;-75
2021/06/09 05:51:14;;;;;;;0.75;0.75;;;17.90;99.90;;;;;;5073577;28;20020;-75
2021/06/09 05:53:41;;;;;;;0.10;0.10;;;17.70;99.90;;;;;;5074122;28;20118;-74
2021/06/09 05:56:08;;;;;;;2.80;0.98;;;17.60;99.90;;;;;;5074065;28;20031;-75
2021/06/09 05:58:34;;;;;;;0.10;0.10;;;17.70;99.90;;;;;;5057323;28;20105;-74
2021/06/09 06:01:03;;;;;;;0.17;0.17;;;17.90;99.90;;;;;;5092142;28;20082;-74
2021/06/09 06:03:29;;;;;;;0.10;0.10;;;18.10;99.90;;;;;;5052031;28;20021;-75
2021/06/09 06:05:58;;;;;;;0.10;0.10;;;18.20;99.90;;;;;;5051726;28;20035;-75
2021/06/09 06:08:28;;;;;;;0.45;0.45;;;18.20;99.90;;;;;;5017585;28;20434;-75
2021/06/09 06:11:06;;;;;;;0.38;0.38;;;18.40;99.90;;;;;;5051785;28;20020;-75
2021/06/09 06:13:34;;;;;;;0.63;0.52;;;18.40;99.90;;;;;;5051587;28;20379;-74
2021/06/09 06:16:00;;;;;;;0.10;0.10;;;18.40;99.90;;;;;;5051559;28;20033;-73
2021/06/09 06:18:36;;;;;;;0.77;0.77;;;18.30;99.90;;;;;;5051846;28;20123;-75
2021/06/09 06:21:05;;;;;;;0.10;0.10;;;18.40;99.90;;;;;;5033815;28;20025;-74
2021/06/09 06:23:31;;;;;;;0.20;0.20;;;18.40;99.90;;;;;;5029431;28;20113;-75
2021/06/09 06:25:57;;;;;;;0.28;0.28;;;18.60;99.90;;;;;;5070984;28;20480;-75
2021/06/09 06:28:23;;;;;;;0.38;0.38;;;18.80;99.90;;;;;;5053762;28;20082;-75
2021/06/09 06:30:51;;;;;;;1.02;1.02;;;18.80;99.90;;;;;;5052688;28;20357;-74
2021/06/09 06:33:18;;;;;;;0.10;0.10;;;18.90;99.90;;;;;;5053313;28;20159;-74
2021/06/09 06:35:45;;;;;;;0.03;0.03;;;18.90;99.90;;;;;;5036464;28;20021;-74
2021/06/09 06:38:13;;;;;;;0.20;0.20;;;19.00;99.90;;;;;;5036719;28;20020;-74
2021/06/09 06:40:39;;;;;;;0.20;0.20;;;19.20;99.90;;;;;;5053161;28;20174;-74
2021/06/09 06:43:05;;;;;;;0.03;0.03;;;19.40;99.90;;;;;;5069586;28;20039;-75
2021/06/09 06:45:32;;;;;;;0.45;0.45;;;19.60;99.90;;;;;;5053314;28;20485;-74
2021/06/09 06:47:58;;;;;;;0.10;0.10;;;19.60;99.90;;;;;;5071209;28;20376;-74
2021/06/09 06:50:25;;;;;;;0.10;0.10;;;19.70;99.90;;;;;;5069860;28;20028;-74
2021/06/09 06:52:51;;;;;;;0.35;0.35;;;19.80;99.90;;;;;;5071224;28;20415;-74
2021/06/09 06:55:21;;;;;;;0.10;0.10;;;19.90;99.90;;;;;;5036629;28;20025;-75
2021/06/09 06:57:48;;;;;;;0.00;0.00;;;20.00;99.90;;;;;;5052807;28;20021;-75
2021/06/09 07:00:17;;;;;;;0.10;0.10;;;20.10;99.80;;;;;;5053608;28;20008;-74
2021/06/09 07:02:47;;;;;;;0.10;0.10;;;20.20;98.60;;;;;;5076869;28;20506;-74
2021/06/09 07:05:13;;;;;;;0.10;0.10;;;20.20;98.00;;;;;;5069382;28;20036;-74
2021/06/09 07:07:41;;;;;;;0.10;0.10;;;20.40;98.10;;;;;;5068971;28;20032;-75
2021/06/09 07:10:10;;;;;;;0.10;0.10;;;20.60;97.10;;;;;;5034667;28;20100;-74
2021/06/09 07:12:40;;;;;;;0.40;0.40;;;20.60;96.20;;;;;;5065491;28;20028;-74
2021/06/09 07:15:18;;;;;;;0.10;0.10;;;20.60;96.20;;;;;;5070082;28;20031;-75
2021/06/09 07:17:51;;;;;;;0.10;0.10;;;20.70;95.80;;;;;;5066037;28;20017;-74
2021/06/09 07:20:19;;;;;;;0.10;0.10;;;21.00;95.90;;;;;;5069927;28;20016;-74
2021/06/09 07:22:46;;;;;;;0.10;0.10;;;21.20;95.10;;;;;;5050912;28;20029;-73
2021/06/09 07:25:12;;;;;;;0.10;0.10;;;20.90;94.90;;;;;;5069388;28;20047;-74
2021/06/09 07:27:49;;;;;;;0.10;0.10;;;20.90;94.50;;;;;;5069304;28;20025;-74
2021/06/09 07:30:18;;;;;;;0.00;0.00;;;21.20;94.50;;;;;;5069972;28;20537;-74
2021/06/09 07:32:46;;;;;;;0.10;0.10;;;21.40;92.90;;;;;;5069410;28;20042;-75
2021/06/09 07:35:13;;;;;;;1.35;1.25;;;21.50;92.70;;;;;;5051398;28;20024;-73
2021/06/09 07:37:46;;;;;;;0.03;0.03;;;21.70;92.00;;;;;;5051085;28;20048;-74
2021/06/09 07:40:18;;;;;;;0.13;0.13;;;21.80;92.50;;;;;;5069759;28;20042;-74
2021/06/09 07:42:48;;;;;;;;;;;21.70;91.40;;;;;;5069859;28;20130;-74
2021/06/09 07:45:17;;;;;;;0.08;0.08;;;21.70;91.20;;;;;;5072866;28;19916;-74
2021/06/09 07:47:46;;;;;;;2.15;1.83;;;21.60;91.40;;;;;;5054372;28;20115;-74
2021/06/09 07:50:14;;;;;;;0.15;0.15;;;21.70;90.60;;;;;;5073341;28;20028;-74
2021/06/09 07:52:45;;;;;;;0.40;0.40;;;22.00;90.70;;;;;;5068207;28;20088;-74
2021/06/09 07:55:12;;;;;;;0.40;0.40;;;22.30;90.00;;;;;;5073130;28;20017;-74
2021/06/09 07:57:40;;;;;;;0.90;0.55;;;22.30;88.00;;;;;;5072820;28;20021;-74
2021/06/09 08:00:11;;;;;;;0.10;0.10;;;22.30;87.10;;;;;;5072776;28;20016;-74
2021/06/09 08:02:39;;;;;;;0.03;0.03;;;22.50;85.00;;;;;;5068561;28;20021;-74
2021/06/09 08:05:06;;;;;;;0.20;0.20;;;22.70;83.00;;;;;;5072619;28;20384;-74
2021/06/09 08:07:31;;;;;;;0.68;0.68;;;23.00;81.40;;;;;;5054686;28;20426;-74
2021/06/09 08:09:57;;;;;;;0.32;0.32;;;23.10;80.30;;;;;;5054467;28;20043;-75
2021/06/09 08:12:23;;;;;;;0.13;0.13;;;23.00;79.70;;;;;;5054625;28;20028;-74
2021/06/09 08:14:51;;;;;;;4.07;1.02;;;22.90;79.10;;;;;;5054131;28;20089;-74
2021/06/09 08:17:17;;;;;;;0.00;0.00;;;23.20;78.90;;;;;;5054524;28;20027;-73
2021/06/09 08:19:43;;;;;;;0.43;0.43;;;23.20;77.00;;;;;;5072378;28;20535;-74
2021/06/09 08:22:09;;;;;;;0.10;0.10;;;23.30;78.50;;;;;;5054481;28;20174;-75
2021/06/09 08:24:34;;;;;;;0.30;0.30;;;23.30;77.10;;;;;;5071761;28;20024;-74
2021/06/09 08:27:03;;;;;;;0.22;0.22;;;23.50;78.00;;;;;;5054340;28;20107;-73
2021/06/09 08:29:31;;;;;;;0.45;0.45;;;23.70;77.50;;;;;;5071521;28;20032;-75
2021/06/09 08:31:57;;;;;;;0.00;0.00;;;23.90;77.80;;;;;;5071792;28;20020;-75
2021/06/09 08:34:23;;;;;;;1.67;1.58;;;24.00;77.50;;;;;;5054138;28;20068;-74
2021/06/09 08:36:49;;;;;;;0.55;0.50;;;24.20;76.20;;;;;;5072291;28;20082;-74
2021/06/09 08:39:15;;;;;;;0.90;0.57;;;24.20;77.30;;;;;;5037445;28;20024;-74
2021/06/09 08:41:43;;;;;;;0.88;0.88;;;24.20;74.90;;;;;;5072224;28;20016;-74
2021/06/09 08:44:09;;;;;;;7.93;2.55;;;24.50;73.70;;;;;;5071798;28;20059;-75
2021/06/09 08:46:36;;;;;;;0.45;0.45;;;24.50;70.60;;;;;;5072265;28;20059;-75
2021/06/09 08:49:04;;;;;;;0.00;0.00;;;24.90;67.80;;;;;;5053601;28;20137;-75
2021/06/09 08:51:32;;;;;;;0.00;0.00;;;25.00;65.40;;;;;;5071819;28;20029;-75
2021/06/09 08:54:00;;;;;;;0.30;0.30;;;25.20;64.00;;;;;;5053328;28;20514;-74
2021/06/09 08:56:25;;;;;;;0.40;0.40;;;25.40;61.60;;;;;;5071653;28;20472;-72
2021/06/09 08:58:52;;;;;;;0.47;0.47;;;25.30;60.00;;;;;;5071402;28;20028;-71
2021/06/09 09:01:18;;;;;;;0.93;0.52;;;25.30;65.00;;;;;;5037057;28;20036;-72
2021/06/09 09:03:47;;;;;;;0.35;0.22;;;24.80;65.50;;;;;;5071442;28;20476;-71
2021/06/09 09:06:13;;;;;;;0.30;0.30;;;24.60;67.30;;;;;;5071736;28;20021;-72
2021/06/09 09:08:39;;;;;;;0.00;0.00;;;25.00;66.80;;;;;;5034351;28;20078;-72
2021/06/09 09:11:05;;;;;;;0.55;0.55;;;25.10;65.70;;;;;;5071579;28;20023;-74
2021/06/09 09:13:33;;;;;;;0.00;0.00;;;25.10;66.10;;;;;;5071673;28;20036;-75
2021/06/09 09:15:58;;;;;;;1.55;1.35;;;25.30;67.30;;;;;;5071578;28;20024;-74
2021/06/09 09:18:49;;;;;;;0.10;0.10;;;25.80;66.80;;;;;;5069856;28;20472;-72
2021/06/09 09:21:39;;;;;;;1.42;1.38;;;25.60;66.90;;;;;;5067853;28;20029;-71
2021/06/09 09:24:08;;;;;;;0.00;0.00;;;25.40;67.80;;;;;;5071096;28;20110;-71
2021/06/09 09:26:35;;;;;;;0.30;0.30;;;25.20;68.60;;;;;;5036710;28;20544;-72
2021/06/09 09:29:21;;;;;;;3.55;3.25;;;24.90;69.30;;;;;;5071053;28;20048;-72
2021/06/09 09:31:53;;;;;;;1.60;1.48;;;24.30;70.10;;;;;;5052552;28;20021;-73
2021/06/09 09:34:37;;;;;;;1.08;0.65;;;24.20;71.50;;;;;;5070412;28;20028;-73
2021/06/09 09:37:04;;;;;;;0.10;0.10;;;24.60;69.90;;;;;;5070876;28;20033;-73
2021/06/09 09:39:30;;;;;;;1.17;0.82;;;25.30;67.80;;;;;;5070707;28;20036;-73
2021/06/09 09:41:57;;;;;;;0.40;0.40;;;25.60;65.20;;;;;;5070760;28;20025;-73
2021/06/09 09:44:23;;;;;;;0.00;0.00;;;25.90;64.80;;;;;;5052282;28;20701;-72
2021/06/09 09:46:56;;;;;;;0.25;0.25;;;25.30;65.90;;;;;;5070865;28;20035;-73
2021/06/09 09:49:22;;;;;;;0.20;0.20;;;25.20;66.20;;;;;;5052411;28;20036;-72
2021/06/09 09:51:50;;;;;;;0.10;0.10;;;24.90;67.10;;;;;;5070483;28;20039;-73
2021/06/09 09:54:26;;;;;;;1.10;1.10;;;25.50;65.50;;;;;;5035434;28;20137;-72
2021/06/09 09:56:53;;;;;;;3.03;1.05;;;26.20;63.20;;;;;;5052458;28;20025;-72
2021/06/09 09:59:22;;;;;;;1.83;1.45;;;26.40;60.90;;;;;;5070059;28;20031;-72
2021/06/09 10:01:52;;;;;;;12.20;3.25;;;25.50;62.10;;;;;;5070308;28;20712;-72
2021/06/09 10:04:25;;;;;;;0.00;0.00;;;24.90;65.30;;;;;;5052199;28;20028;-72
2021/06/09 10:06:51;;;;;;;0.00;0.00;;;24.50;67.50;;;;;;5069556;28;20476;-72
2021/06/09 10:09:20;;;;;;;1.10;1.05;;;24.70;67.70;;;;;;5052144;28;20020;-73
2021/06/09 10:11:49;;;;;;;0.10;0.10;;;25.20;64.20;;;;;;5036243;28;20021;-74
2021/06/09 10:14:30;;;;;;;0.05;0.05;;;24.90;63.40;;;;;;5052542;28;20027;-73
2021/06/09 10:17:07;;;;;;;0.00;0.00;;;24.60;65.40;;;;;;5036195;28;20067;-76
2021/06/09 10:19:41;;;;;;;0.00;0.00;;;24.40;64.80;;;;;;5067410;28;20400;-75
2021/06/09 10:22:11;;;;;;;0.10;0.10;;;24.30;64.80;;;;;;5036047;28;20030;-74
2021/06/09 10:24:42;;;;;;;0.00;0.00;;;24.50;63.70;;;;;;5069995;28;20472;-74
2021/06/09 10:27:08;;;;;;;0.00;0.00;;;24.60;62.60;;;;;;5070268;28;20090;-75
2021/06/09 10:29:35;;;;;;;1.13;1.02;;;24.70;62.90;;;;;;5068481;28;20020;-74
2021/06/09 10:32:13;;;;;;;0.00;0.00;;;24.80;63.20;;;;;;5035290;28;20101;-74
2021/06/09 10:34:42;;;;;;;0.50;0.50;;;24.60;63.00;;;;;;5070194;28;20028;-74
2021/06/09 10:37:09;;;;;;;0.10;0.10;;;24.30;64.70;;;;;;5052393;28;20033;-74
2021/06/09 10:39:39;;;;;;;0.00;0.00;;;24.20;66.40;;;;;;5070291;28;20047;-74
2021/06/09 10:42:10;;;;;;;0.52;0.43;;;24.10;66.10;;;;;;5052369;28;20035;-75
2021/06/09 10:44:45;;;;;;;0.10;0.10;;;24.10;66.40;;;;;;5052511;28;20032;-74
2021/06/09 10:47:18;;;;;;;0.30;0.30;;;24.00;67.20;;;;;;5070730;28;20024;-75
2021/06/09 10:49:45;;;;;;;0.75;0.75;;;24.00;66.80;;;;;;5033465;28;20089;-74
2021/06/09 10:52:12;;;;;;;0.17;0.17;;;24.00;65.80;;;;;;5033196;28;20551;-74
2021/06/09 10:54:38;;;;;;;0.25;0.25;;;23.90;65.70;;;;;;5065065;28;20154;-74
2021/06/09 10:57:08;;;;;;;4.03;2.08;;;23.90;66.00;;;;;;5068368;28;20021;-73
2021/06/09 10:59:34;;;;;;;0.70;0.70;;;23.70;66.30;;;;;;5035367;28;20024;-74
2021/06/09 11:02:05;;;;;;;0.20;0.20;;;23.60;66.90;;;;;;5066280;28;20507;-74
2021/06/09 11:04:46;;;;;;;0.08;0.08;;;23.60;66.20;;;;;;5051926;28;20028;-74
2021/06/09 11:07:33;;;;;;;0.00;0.00;;;23.70;66.50;;;;;;5070077;28;20021;-74
2021/06/09 11:10:09;;;;;;;9.18;1.75;;;23.50;67.50;;;;;;5051833;28;20036;-74
2021/06/09 11:12:39;;;;;;;0.00;0.00;;;23.50;68.20;;;;;;5070204;28;20066;-75
2021/06/09 11:15:10;;;;;;;0.10;0.10;;;23.60;66.80;;;;;;5069800;28;20017;-74
2021/06/09 11:17:46;;;;;;;0.00;0.00;;;23.80;65.60;;;;;;5070851;28;20043;-74
2021/06/09 11:20:25;;;;;;;0.00;0.00;;;24.00;64.90;;;;;;5055999;28;20104;-74
2021/06/09 11:22:56;;;;;;;0.00;0.00;;;24.10;66.00;;;;;;5056363;28;20051;-74
2021/06/09 11:25:22;;;;;;;2.17;1.30;;;24.00;66.10;;;;;;5055496;28;20040;-74
2021/06/09 11:28:05;;;;;;;0.10;0.10;;;23.90;64.50;;;;;;5055995;28;20396;-74
2021/06/09 11:30:31;;;;;;;0.00;0.00;;;23.90;65.10;;;;;;5073607;28;20027;-75
2021/06/09 11:33:00;;;;;;;0.30;0.20;;;24.10;64.60;;;;;;5055756;28;20115;-74
2021/06/09 11:35:47;;;;;;;3.13;1.13;;;24.10;64.20;;;;;;5073399;28;20423;-74
2021/06/09 11:38:12;;;;;;;0.00;0.00;;;24.00;64.80;;;;;;5071838;28;20060;-75
2021/06/09 11:41:09;;;;;;;0.00;0.00;;;24.00;63.90;;;;;;5070707;28;20048;-74
2021/06/09 11:43:39;;;;;;;0.25;0.22;;;23.90;63.40;;;;;;5067709;28;20024;-74
2021/06/09 11:46:08;;;;;;;1.45;0.85;;;24.40;61.40;;;;;;5073016;28;20102;-74
2021/06/09 11:48:36;;;;;;;0.30;0.30;;;25.10;59.20;;;;;;5073352;28;20498;-74
2021/06/09 11:51:19;;;;;;;1.40;0.98;;;25.60;57.10;;;;;;5073036;28;20017;-74
2021/06/09 11:53:48;;;;;;;0.10;0.10;;;25.80;56.40;;;;;;5073162;28;20029;-74
2021/06/09 11:56:27;;;;;;;0.15;0.15;;;26.00;56.40;;;;;;5054733;28;20028;-74
2021/06/09 11:58:56;;;;;;;0.40;0.40;;;25.90;56.30;;;;;;5069654;28;20548;-74
2021/06/09 12:01:23;;;;;;;0.00;0.00;;;25.80;56.20;;;;;;5054061;28;20032;-74
2021/06/09 12:04:08;;;;;;;0.00;0.00;;;25.50;56.80;;;;;;5055641;28;20029;-74
2021/06/09 12:07:24;;;;;;;0.10;0.10;;;25.30;57.40;;;;;;5052535;28;20028;-74
2021/06/09 12:09:51;;;;;;;0.00;0.00;;;25.10;58.40;;;;;;4974021;28;20422;-74
2021/06/09 12:12:24;;;;;;;4.47;2.20;;;24.90;58.50;;;;;;4991556;28;20034;-74
2021/06/09 12:14:50;;;;;;;0.22;0.22;;;24.80;57.60;;;;;;5038193;28;20499;-74
2021/06/09 12:17:21;;;;;;;0.00;0.00;;;24.80;57.70;;;;;;5073080;28;20020;-74
2021/06/09 12:20:00;;;;;;;3.10;1.25;;;24.90;56.70;;;;;;5072028;28;20029;-74
2021/06/09 12:22:30;;;;;;;0.00;0.00;;;25.00;57.40;;;;;;5073171;28;20488;-74
2021/06/09 12:25:14;;;;;;;0.10;0.10;;;24.90;57.00;;;;;;5069161;28;20060;-74
2021/06/09 12:28:18;;;;;;;0.00;0.00;;;24.70;57.60;;;;;;5070875;28;20028;-74
2021/06/09 12:30:51;;;;;;;0.03;0.03;;;24.70;58.00;;;;;;5070506;28;20119;-73
2021/06/09 12:33:17;;;;;;;0.45;0.45;;;24.70;58.60;;;;;;5072890;28;20020;-73
2021/06/09 12:35:43;;;;;;;0.30;0.30;;;24.60;57.70;;;;;;5053911;28;20476;-74
2021/06/09 12:38:10;;;;;;;0.65;0.65;;;24.40;58.00;;;;;;5072457;28;20051;-74
2021/06/09 12:40:39;;;;;;;0.90;0.73;;;24.30;58.90;;;;;;5053389;28;20484;-74
2021/06/09 12:43:11;;;;;;;0.00;0.00;;;24.20;58.90;;;;;;5051761;28;20464;-74
2021/06/09 12:45:39;;;;;;;0.00;0.00;;;24.20;57.50;;;;;;5068486;28;20459;-74
2021/06/09 12:48:07;;;;;;;0.10;0.10;;;24.10;58.90;;;;;;5051243;28;20029;-74
2021/06/09 12:50:39;;;;;;;0.28;0.25;;;24.20;59.00;;;;;;5069199;28;20051;-74
2021/06/09 12:53:15;;;;;;;0.50;0.50;;;23.90;65.90;;;;;;5052299;28;20024;-74
2021/06/09 12:55:50;;;;;;;0.00;0.00;;;23.40;69.70;;;;;;5066219;28;20485;-74
2021/06/09 12:58:20;;;;;;;0.45;0.45;;;23.30;71.30;;;;;;5031337;28;20084;-74
2021/06/09 13:00:49;;;;;;;1.70;1.52;;;23.20;71.00;;;;;;5051487;28;20089;-73
2021/06/09 13:03:26;;;;;;;3.80;2.08;;;22.90;71.20;;;;;;5037737;28;20019;-73